sensor_id;sensor_type;location;lat;lon;timestamp;P1;durP1;ratioP1;P2;durP2;ratioP2
6127;SDS011;7073;42.672;23.256;2024-01-16T00:02:22;21.50;;;9.52;;
6127;SDS011;7073;42.672;23.256;2024-01-16T00:05:01;19.13;;;8.85;;
6127;SDS011;7073;42.672;23.256;2024-01-16T00:10:53;17.67;;;7.50;;
6127;SDS011;7073;42.672;23.256;2024-01-16T00:13:49;20.35;;;8.40;;
6127;SDS011;7073;42.672;23.256;2024-01-16T00:16:18;21.52;;;8.90;;
6127;SDS011;7073;42.672;23.256;2024-01-16T00:18:45;17.45;;;8.40;;
6127;SDS011;7073;42.672;23.256;2024-01-16T00:21:12;17.02;;;7.65;;
6127;SDS011;7073;42.672;23.256;2024-01-16T00:23:39;21.60;;;9.23;;
6127;SDS011;7073;42.672;23.256;2024-01-16T00:26:06;19.25;;;8.77;;
6127;SDS011;7073;42.672;23.256;2024-01-16T00:28:33;6.45;;;4.15;;
6127;SDS011;7073;42.672;23.256;2024-01-16T00:31:01;21.60;;;8.80;;
6127;SDS011;7073;42.672;23.256;2024-01-16T00:33:35;15.05;;;7.93;;
6127;SDS011;7073;42.672;23.256;2024-01-16T00:36:03;18.05;;;8.45;;
6127;SDS011;7073;42.672;23.256;2024-01-16T00:38:32;17.80;;;8.55;;
6127;SDS011;7073;42.672;23.256;2024-01-16T00:40:59;15.00;;;7.88;;
6127;SDS011;7073;42.672;23.256;2024-01-16T00:43:26;18.77;;;8.02;;
6127;SDS011;7073;42.672;23.256;2024-01-16T00:45:53;17.25;;;7.68;;
6127;SDS011;7073;42.672;23.256;2024-01-16T00:48:20;16.52;;;8.50;;
6127;SDS011;7073;42.672;23.256;2024-01-16T00:50:49;15.88;;;7.50;;
6127;SDS011;7073;42.672;23.256;2024-01-16T00:53:16;16.50;;;7.85;;
6127;SDS011;7073;42.672;23.256;2024-01-16T00:55:43;8.23;;;4.97;;
6127;SDS011;7073;42.672;23.256;2024-01-16T00:58:10;14.73;;;6.65;;
6127;SDS011;7073;42.672;23.256;2024-01-16T01:00:40;12.55;;;6.10;;
6127;SDS011;7073;42.672;23.256;2024-01-16T01:03:09;16.65;;;6.78;;
6127;SDS011;7073;42.672;23.256;2024-01-16T01:05:37;12.77;;;6.15;;
6127;SDS011;7073;42.672;23.256;2024-01-16T01:08:08;12.38;;;5.82;;
6127;SDS011;7073;42.672;23.256;2024-01-16T01:10:51;13.93;;;6.18;;
6127;SDS011;7073;42.672;23.256;2024-01-16T01:13:24;5.53;;;2.85;;
6127;SDS011;7073;42.672;23.256;2024-01-16T01:16:02;11.63;;;5.57;;
6127;SDS011;7073;42.672;23.256;2024-01-16T01:18:29;11.80;;;6.03;;
6127;SDS011;7073;42.672;23.256;2024-01-16T01:20:57;12.57;;;5.55;;
6127;SDS011;7073;42.672;23.256;2024-01-16T01:23:27;10.98;;;5.15;;
6127;SDS011;7073;42.672;23.256;2024-01-16T01:25:58;12.27;;;5.45;;
6127;SDS011;7073;42.672;23.256;2024-01-16T01:28:27;10.02;;;5.43;;
6127;SDS011;7073;42.672;23.256;2024-01-16T01:30:57;7.93;;;3.83;;
6127;SDS011;7073;42.672;23.256;2024-01-16T01:33:25;7.28;;;3.85;;
6127;SDS011;7073;42.672;23.256;2024-01-16T01:35:52;10.63;;;6.47;;
6127;SDS011;7073;42.672;23.256;2024-01-16T01:38:20;11.18;;;5.50;;
6127;SDS011;7073;42.672;23.256;2024-01-16T01:40:50;11.45;;;5.72;;
6127;SDS011;7073;42.672;23.256;2024-01-16T01:43:17;9.15;;;5.15;;
6127;SDS011;7073;42.672;23.256;2024-01-16T01:45:59;13.10;;;6.13;;
6127;SDS011;7073;42.672;23.256;2024-01-16T01:48:35;10.43;;;5.50;;
6127;SDS011;7073;42.672;23.256;2024-01-16T01:51:03;8.88;;;4.72;;
6127;SDS011;7073;42.672;23.256;2024-01-16T01:53:31;9.90;;;5.03;;
6127;SDS011;7073;42.672;23.256;2024-01-16T01:56:03;8.15;;;3.97;;
6127;SDS011;7073;42.672;23.256;2024-01-16T01:58:33;8.35;;;4.43;;
6127;SDS011;7073;42.672;23.256;2024-01-16T02:01:06;5.15;;;2.25;;
6127;SDS011;7073;42.672;23.256;2024-01-16T02:03:39;9.45;;;4.97;;
6127;SDS011;7073;42.672;23.256;2024-01-16T02:06:09;10.00;;;5.28;;
6127;SDS011;7073;42.672;23.256;2024-01-16T02:08:37;10.98;;;4.57;;
6127;SDS011;7073;42.672;23.256;2024-01-16T02:11:17;10.65;;;4.50;;
6127;SDS011;7073;42.672;23.256;2024-01-16T02:13:44;9.43;;;4.63;;
6127;SDS011;7073;42.672;23.256;2024-01-16T02:16:18;8.45;;;4.07;;
6127;SDS011;7073;42.672;23.256;2024-01-16T02:18:45;7.50;;;4.15;;
6127;SDS011;7073;42.672;23.256;2024-01-16T02:21:12;6.78;;;3.53;;
6127;SDS011;7073;42.672;23.256;2024-01-16T02:23:45;8.23;;;3.88;;
6127;SDS011;7073;42.672;23.256;2024-01-16T02:26:12;8.45;;;3.92;;
6127;SDS011;7073;42.672;23.256;2024-01-16T02:28:44;9.20;;;4.05;;
6127;SDS011;7073;42.672;23.256;2024-01-16T02:31:13;10.23;;;4.30;;
6127;SDS011;7073;42.672;23.256;2024-01-16T02:33:40;8.43;;;4.07;;
6127;SDS011;7073;42.672;23.256;2024-01-16T02:36:10;7.78;;;3.95;;
6127;SDS011;7073;42.672;23.256;2024-01-16T02:38:38;8.50;;;3.75;;
6127;SDS011;7073;42.672;23.256;2024-01-16T02:41:07;3.53;;;1.42;;
6127;SDS011;7073;42.672;23.256;2024-01-16T02:43:36;3.05;;;1.92;;
6127;SDS011;7073;42.672;23.256;2024-01-16T02:46:04;4.60;;;2.13;;
6127;SDS011;7073;42.672;23.256;2024-01-16T02:48:36;6.47;;;3.42;;
6127;SDS011;7073;42.672;23.256;2024-01-16T02:51:04;5.90;;;3.28;;
6127;SDS011;7073;42.672;23.256;2024-01-16T02:53:32;7.88;;;4.50;;
6127;SDS011;7073;42.672;23.256;2024-01-16T02:56:01;9.95;;;5.57;;
6127;SDS011;7073;42.672;23.256;2024-01-16T02:58:31;9.60;;;5.60;;
6127;SDS011;7073;42.672;23.256;2024-01-16T03:01:01;7.68;;;3.85;;
6127;SDS011;7073;42.672;23.256;2024-01-16T03:03:38;12.30;;;5.05;;
6127;SDS011;7073;42.672;23.256;2024-01-16T03:06:06;6.38;;;3.63;;
6127;SDS011;7073;42.672;23.256;2024-01-16T03:08:33;6.38;;;3.17;;
6127;SDS011;7073;42.672;23.256;2024-01-16T03:11:03;4.93;;;2.97;;
6127;SDS011;7073;42.672;23.256;2024-01-16T03:13:35;5.85;;;2.97;;
6127;SDS011;7073;42.672;23.256;2024-01-16T03:16:06;4.00;;;1.80;;
6127;SDS011;7073;42.672;23.256;2024-01-16T03:18:33;3.17;;;1.92;;
6127;SDS011;7073;42.672;23.256;2024-01-16T03:21:00;3.70;;;2.50;;
6127;SDS011;7073;42.672;23.256;2024-01-16T03:23:35;3.25;;;2.10;;
6127;SDS011;7073;42.672;23.256;2024-01-16T03:26:05;4.22;;;2.47;;
6127;SDS011;7073;42.672;23.256;2024-01-16T03:28:56;3.70;;;2.35;;
6127;SDS011;7073;42.672;23.256;2024-01-16T03:31:27;4.63;;;2.80;;
6127;SDS011;7073;42.672;23.256;2024-01-16T03:33:55;3.65;;;2.00;;
6127;SDS011;7073;42.672;23.256;2024-01-16T03:36:23;3.72;;;2.35;;
6127;SDS011;7073;42.672;23.256;2024-01-16T03:38:50;3.92;;;2.40;;
6127;SDS011;7073;42.672;23.256;2024-01-16T03:41:18;3.45;;;1.98;;
6127;SDS011;7073;42.672;23.256;2024-01-16T03:43:49;2.83;;;1.80;;
6127;SDS011;7073;42.672;23.256;2024-01-16T03:46:23;3.58;;;2.25;;
6127;SDS011;7073;42.672;23.256;2024-01-16T03:48:51;3.88;;;2.33;;
6127;SDS011;7073;42.672;23.256;2024-01-16T03:51:19;2.15;;;1.30;;
6127;SDS011;7073;42.672;23.256;2024-01-16T03:53:47;2.33;;;1.40;;
6127;SDS011;7073;42.672;23.256;2024-01-16T03:56:15;2.78;;;1.60;;
6127;SDS011;7073;42.672;23.256;2024-01-16T03:58:49;1.50;;;1.10;;
6127;SDS011;7073;42.672;23.256;2024-01-16T04:01:16;2.97;;;1.65;;
6127;SDS011;7073;42.672;23.256;2024-01-16T04:04:05;3.35;;;2.25;;
6127;SDS011;7073;42.672;23.256;2024-01-16T04:06:46;2.33;;;1.40;;
6127;SDS011;7073;42.672;23.256;2024-01-16T04:09:17;5.38;;;2.00;;
6127;SDS011;7073;42.672;23.256;2024-01-16T04:12:27;2.53;;;1.83;;
6127;SDS011;7073;42.672;23.256;2024-01-16T04:15:10;3.33;;;2.03;;
6127;SDS011;7073;42.672;23.256;2024-01-16T04:18:46;3.05;;;1.70;;
6127;SDS011;7073;42.672;23.256;2024-01-16T04:30:00;2.45;;;1.55;;
6127;SDS011;7073;42.672;23.256;2024-01-16T04:32:28;3.53;;;1.58;;
6127;SDS011;7073;42.672;23.256;2024-01-16T04:38:12;2.47;;;1.55;;
6127;SDS011;7073;42.672;23.256;2024-01-16T04:40:41;1.67;;;1.30;;
6127;SDS011;7073;42.672;23.256;2024-01-16T04:43:09;2.90;;;1.45;;
6127;SDS011;7073;42.672;23.256;2024-01-16T04:45:59;2.50;;;1.40;;
6127;SDS011;7073;42.672;23.256;2024-01-16T04:48:26;2.60;;;1.70;;
6127;SDS011;7073;42.672;23.256;2024-01-16T04:50:56;2.75;;;1.33;;
6127;SDS011;7073;42.672;23.256;2024-01-16T04:53:28;3.10;;;1.63;;
6127;SDS011;7073;42.672;23.256;2024-01-16T04:55:58;2.95;;;1.70;;
6127;SDS011;7073;42.672;23.256;2024-01-16T04:58:59;2.58;;;2.03;;
6127;SDS011;7073;42.672;23.256;2024-01-16T05:04:59;3.90;;;1.58;;
6127;SDS011;7073;42.672;23.256;2024-01-16T05:07:41;2.97;;;1.50;;
6127;SDS011;7073;42.672;23.256;2024-01-16T05:10:14;1.15;;;0.82;;
6127;SDS011;7073;42.672;23.256;2024-01-16T05:12:44;2.85;;;1.27;;
6127;SDS011;7073;42.672;23.256;2024-01-16T05:15:15;3.25;;;1.50;;
6127;SDS011;7073;42.672;23.256;2024-01-16T05:17:47;3.03;;;1.65;;
6127;SDS011;7073;42.672;23.256;2024-01-16T05:20:20;2.55;;;1.63;;
6127;SDS011;7073;42.672;23.256;2024-01-16T05:22:47;2.22;;;1.27;;
6127;SDS011;7073;42.672;23.256;2024-01-16T05:25:16;2.50;;;1.63;;
6127;SDS011;7073;42.672;23.256;2024-01-16T05:27:48;4.15;;;1.77;;
6127;SDS011;7073;42.672;23.256;2024-01-16T05:30:15;3.08;;;1.42;;
6127;SDS011;7073;42.672;23.256;2024-01-16T05:32:48;3.60;;;1.50;;
6127;SDS011;7073;42.672;23.256;2024-01-16T05:38:20;3.42;;;1.63;;
6127;SDS011;7073;42.672;23.256;2024-01-16T05:40:48;2.17;;;1.45;;
6127;SDS011;7073;42.672;23.256;2024-01-16T05:43:17;2.22;;;1.05;;
6127;SDS011;7073;42.672;23.256;2024-01-16T05:45:58;1.67;;;1.20;;
6127;SDS011;7073;42.672;23.256;2024-01-16T05:48:27;3.53;;;1.38;;
6127;SDS011;7073;42.672;23.256;2024-01-16T05:51:08;1.73;;;0.98;;
6127;SDS011;7073;42.672;23.256;2024-01-16T05:53:47;2.17;;;1.13;;
6127;SDS011;7073;42.672;23.256;2024-01-16T05:56:28;2.60;;;1.30;;
6127;SDS011;7073;42.672;23.256;2024-01-16T05:58:59;1.58;;;1.13;;
6127;SDS011;7073;42.672;23.256;2024-01-16T06:01:33;2.20;;;1.35;;
6127;SDS011;7073;42.672;23.256;2024-01-16T06:04:19;2.67;;;1.23;;
6127;SDS011;7073;42.672;23.256;2024-01-16T06:07:13;1.13;;;0.93;;
6127;SDS011;7073;42.672;23.256;2024-01-16T06:09:54;1.13;;;0.65;;
6127;SDS011;7073;42.672;23.256;2024-01-16T06:14:58;1.55;;;0.80;;
6127;SDS011;7073;42.672;23.256;2024-01-16T06:17:32;2.15;;;0.90;;
6127;SDS011;7073;42.672;23.256;2024-01-16T06:20:05;1.52;;;0.95;;
6127;SDS011;7073;42.672;23.256;2024-01-16T06:26:02;1.38;;;0.77;;
6127;SDS011;7073;42.672;23.256;2024-01-16T06:28:47;2.10;;;1.23;;
6127;SDS011;7073;42.672;23.256;2024-01-16T06:31:48;2.88;;;1.80;;
6127;SDS011;7073;42.672;23.256;2024-01-16T06:34:26;2.38;;;1.65;;
6127;SDS011;7073;42.672;23.256;2024-01-16T06:37:03;2.70;;;1.10;;
6127;SDS011;7073;42.672;23.256;2024-01-16T06:39:41;6.40;;;2.75;;
6127;SDS011;7073;42.672;23.256;2024-01-16T06:42:13;3.10;;;1.75;;
6127;SDS011;7073;42.672;23.256;2024-01-16T06:44:47;3.55;;;1.88;;
6127;SDS011;7073;42.672;23.256;2024-01-16T06:47:17;2.80;;;1.50;;
6127;SDS011;7073;42.672;23.256;2024-01-16T06:50:14;6.15;;;2.75;;
6127;SDS011;7073;42.672;23.256;2024-01-16T06:52:45;4.40;;;2.45;;
6127;SDS011;7073;42.672;23.256;2024-01-16T06:55:19;2.53;;;0.98;;
6127;SDS011;7073;42.672;23.256;2024-01-16T06:57:50;4.72;;;2.45;;
6127;SDS011;7073;42.672;23.256;2024-01-16T07:00:23;4.43;;;1.50;;
6127;SDS011;7073;42.672;23.256;2024-01-16T07:02:55;2.70;;;1.40;;
6127;SDS011;7073;42.672;23.256;2024-01-16T07:06:10;2.55;;;1.13;;
6127;SDS011;7073;42.672;23.256;2024-01-16T07:08:58;3.35;;;1.70;;
6127;SDS011;7073;42.672;23.256;2024-01-16T07:11:27;1.85;;;1.10;;
6127;SDS011;7073;42.672;23.256;2024-01-16T07:13:57;3.22;;;1.25;;
6127;SDS011;7073;42.672;23.256;2024-01-16T07:16:26;1.30;;;0.82;;
6127;SDS011;7073;42.672;23.256;2024-01-16T07:18:53;2.58;;;1.45;;
6127;SDS011;7073;42.672;23.256;2024-01-16T07:21:21;3.03;;;1.55;;
6127;SDS011;7073;42.672;23.256;2024-01-16T07:23:48;1.13;;;0.68;;
6127;SDS011;7073;42.672;23.256;2024-01-16T07:26:32;2.58;;;1.10;;
6127;SDS011;7073;42.672;23.256;2024-01-16T07:28:59;1.27;;;0.73;;
6127;SDS011;7073;42.672;23.256;2024-01-16T07:31:26;1.35;;;0.80;;
6127;SDS011;7073;42.672;23.256;2024-01-16T07:33:53;1.27;;;0.63;;
6127;SDS011;7073;42.672;23.256;2024-01-16T07:36:20;2.78;;;1.33;;
6127;SDS011;7073;42.672;23.256;2024-01-16T07:38:49;2.15;;;1.40;;
6127;SDS011;7073;42.672;23.256;2024-01-16T07:41:18;2.15;;;1.23;;
6127;SDS011;7073;42.672;23.256;2024-01-16T07:46:53;1.48;;;0.90;;
6127;SDS011;7073;42.672;23.256;2024-01-16T07:58:29;2.05;;;1.17;;
6127;SDS011;7073;42.672;23.256;2024-01-16T08:01:14;2.28;;;1.33;;
6127;SDS011;7073;42.672;23.256;2024-01-16T08:04:04;2.90;;;1.67;;
6127;SDS011;7073;42.672;23.256;2024-01-16T08:10:36;4.05;;;2.10;;
6127;SDS011;7073;42.672;23.256;2024-01-16T08:13:26;2.50;;;1.23;;
6127;SDS011;7073;42.672;23.256;2024-01-16T08:15:59;1.58;;;1.05;;
6127;SDS011;7073;42.672;23.256;2024-01-16T08:18:27;1.33;;;1.00;;
6127;SDS011;7073;42.672;23.256;2024-01-16T08:20:56;2.97;;;1.27;;
6127;SDS011;7073;42.672;23.256;2024-01-16T08:23:25;2.03;;;1.55;;
6127;SDS011;7073;42.672;23.256;2024-01-16T08:25:55;2.47;;;1.50;;
6127;SDS011;7073;42.672;23.256;2024-01-16T08:28:28;2.50;;;1.33;;
6127;SDS011;7073;42.672;23.256;2024-01-16T08:30:57;1.50;;;0.90;;
6127;SDS011;7073;42.672;23.256;2024-01-16T08:33:31;0.80;;;0.63;;
6127;SDS011;7073;42.672;23.256;2024-01-16T08:35:58;3.45;;;1.50;;
6127;SDS011;7073;42.672;23.256;2024-01-16T08:38:25;4.07;;;1.70;;
6127;SDS011;7073;42.672;23.256;2024-01-16T08:40:53;3.60;;;1.23;;
6127;SDS011;7073;42.672;23.256;2024-01-16T08:43:20;2.75;;;1.25;;
6127;SDS011;7073;42.672;23.256;2024-01-16T08:45:47;3.72;;;2.13;;
6127;SDS011;7073;42.672;23.256;2024-01-16T08:48:14;4.50;;;1.60;;
6127;SDS011;7073;42.672;23.256;2024-01-16T08:50:43;3.05;;;1.58;;
6127;SDS011;7073;42.672;23.256;2024-01-16T08:53:17;2.17;;;1.02;;
6127;SDS011;7073;42.672;23.256;2024-01-16T08:55:48;2.92;;;1.30;;
6127;SDS011;7073;42.672;23.256;2024-01-16T08:58:17;0.95;;;0.73;;
6127;SDS011;7073;42.672;23.256;2024-01-16T09:00:46;2.05;;;1.15;;
6127;SDS011;7073;42.672;23.256;2024-01-16T09:03:15;2.75;;;1.00;;
6127;SDS011;7073;42.672;23.256;2024-01-16T09:05:45;3.83;;;1.60;;
6127;SDS011;7073;42.672;23.256;2024-01-16T09:08:14;1.27;;;0.70;;
6127;SDS011;7073;42.672;23.256;2024-01-16T09:10:43;1.15;;;0.70;;
6127;SDS011;7073;42.672;23.256;2024-01-16T09:13:10;2.28;;;0.90;;
6127;SDS011;7073;42.672;23.256;2024-01-16T09:15:38;1.63;;;0.80;;
6127;SDS011;7073;42.672;23.256;2024-01-16T09:18:06;1.52;;;0.80;;
6127;SDS011;7073;42.672;23.256;2024-01-16T09:20:37;1.55;;;1.13;;
6127;SDS011;7073;42.672;23.256;2024-01-16T09:23:16;2.85;;;1.35;;
6127;SDS011;7073;42.672;23.256;2024-01-16T09:25:44;1.60;;;1.00;;
6127;SDS011;7073;42.672;23.256;2024-01-16T09:28:11;2.63;;;0.90;;
6127;SDS011;7073;42.672;23.256;2024-01-16T09:30:41;1.70;;;1.08;;
6127;SDS011;7073;42.672;23.256;2024-01-16T09:33:24;1.40;;;0.88;;
6127;SDS011;7073;42.672;23.256;2024-01-16T09:35:56;2.42;;;0.63;;
6127;SDS011;7073;42.672;23.256;2024-01-16T09:38:25;2.13;;;1.05;;
6127;SDS011;7073;42.672;23.256;2024-01-16T09:41:00;2.00;;;0.93;;
6127;SDS011;7073;42.672;23.256;2024-01-16T09:43:32;1.27;;;0.75;;
6127;SDS011;7073;42.672;23.256;2024-01-16T09:46:03;3.00;;;1.42;;
6127;SDS011;7073;42.672;23.256;2024-01-16T09:48:35;2.72;;;1.48;;
6127;SDS011;7073;42.672;23.256;2024-01-16T09:51:06;1.30;;;0.63;;
6127;SDS011;7073;42.672;23.256;2024-01-16T09:53:37;1.02;;;0.63;;
6127;SDS011;7073;42.672;23.256;2024-01-16T09:56:05;2.30;;;1.13;;
6127;SDS011;7073;42.672;23.256;2024-01-16T09:58:42;9.57;;;2.88;;
6127;SDS011;7073;42.672;23.256;2024-01-16T10:01:23;12.73;;;5.05;;
6127;SDS011;7073;42.672;23.256;2024-01-16T10:03:58;25.55;;;6.47;;
6127;SDS011;7073;42.672;23.256;2024-01-16T10:06:30;11.93;;;3.25;;
6127;SDS011;7073;42.672;23.256;2024-01-16T10:09:17;33.83;;;8.13;;
6127;SDS011;7073;42.672;23.256;2024-01-16T10:11:50;11.00;;;3.72;;
6127;SDS011;7073;42.672;23.256;2024-01-16T10:14:27;12.18;;;2.65;;
6127;SDS011;7073;42.672;23.256;2024-01-16T10:17:01;6.88;;;2.22;;
6127;SDS011;7073;42.672;23.256;2024-01-16T10:19:35;2.38;;;0.77;;
6127;SDS011;7073;42.672;23.256;2024-01-16T10:22:24;6.97;;;2.13;;
6127;SDS011;7073;42.672;23.256;2024-01-16T10:25:18;3.35;;;1.00;;
6127;SDS011;7073;42.672;23.256;2024-01-16T10:27:49;17.50;;;3.47;;
6127;SDS011;7073;42.672;23.256;2024-01-16T10:30:30;1.65;;;1.00;;
6127;SDS011;7073;42.672;23.256;2024-01-16T10:33:12;13.93;;;2.72;;
6127;SDS011;7073;42.672;23.256;2024-01-16T10:35:43;6.75;;;2.00;;
6127;SDS011;7073;42.672;23.256;2024-01-16T10:38:19;14.57;;;2.85;;
6127;SDS011;7073;42.672;23.256;2024-01-16T10:41:09;10.73;;;2.55;;
6127;SDS011;7073;42.672;23.256;2024-01-16T10:43:38;9.70;;;1.92;;
6127;SDS011;7073;42.672;23.256;2024-01-16T10:46:11;2.30;;;0.70;;
6127;SDS011;7073;42.672;23.256;2024-01-16T10:48:39;4.38;;;1.15;;
6127;SDS011;7073;42.672;23.256;2024-01-16T10:53:45;8.85;;;2.53;;
6127;SDS011;7073;42.672;23.256;2024-01-16T10:59:32;4.50;;;1.23;;
6127;SDS011;7073;42.672;23.256;2024-01-16T11:02:07;13.55;;;3.47;;
6127;SDS011;7073;42.672;23.256;2024-01-16T11:04:37;11.30;;;3.50;;
6127;SDS011;7073;42.672;23.256;2024-01-16T11:07:06;4.30;;;1.67;;
6127;SDS011;7073;42.672;23.256;2024-01-16T11:09:54;3.10;;;1.23;;
6127;SDS011;7073;42.672;23.256;2024-01-16T11:12:27;9.07;;;2.75;;
6127;SDS011;7073;42.672;23.256;2024-01-16T11:22:02;5.35;;;1.88;;
6127;SDS011;7073;42.672;23.256;2024-01-16T11:24:35;3.40;;;1.42;;
6127;SDS011;7073;42.672;23.256;2024-01-16T11:30:28;2.10;;;1.20;;
6127;SDS011;7073;42.672;23.256;2024-01-16T11:33:00;12.27;;;6.13;;
6127;SDS011;7073;42.672;23.256;2024-01-16T11:35:33;5.85;;;2.33;;
6127;SDS011;7073;42.672;23.256;2024-01-16T11:38:14;4.47;;;2.08;;
6127;SDS011;7073;42.672;23.256;2024-01-16T11:40:49;7.15;;;2.28;;
6127;SDS011;7073;42.672;23.256;2024-01-16T11:43:39;3.00;;;1.33;;
6127;SDS011;7073;42.672;23.256;2024-01-16T11:46:12;5.57;;;2.20;;
6127;SDS011;7073;42.672;23.256;2024-01-16T11:49:10;5.20;;;2.17;;
6127;SDS011;7073;42.672;23.256;2024-01-16T11:51:53;6.40;;;3.05;;
6127;SDS011;7073;42.672;23.256;2024-01-16T12:00:26;4.35;;;2.38;;
6127;SDS011;7073;42.672;23.256;2024-01-16T12:03:07;4.05;;;2.15;;
6127;SDS011;7073;42.672;23.256;2024-01-16T12:05:36;14.65;;;7.10;;
6127;SDS011;7073;42.672;23.256;2024-01-16T12:08:03;5.05;;;2.63;;
6127;SDS011;7073;42.672;23.256;2024-01-16T12:10:45;4.85;;;2.03;;
6127;SDS011;7073;42.672;23.256;2024-01-16T12:13:14;3.17;;;1.65;;
6127;SDS011;7073;42.672;23.256;2024-01-16T12:18:39;4.18;;;1.83;;
6127;SDS011;7073;42.672;23.256;2024-01-16T12:21:10;2.67;;;1.73;;
6127;SDS011;7073;42.672;23.256;2024-01-16T12:23:54;2.67;;;1.20;;
6127;SDS011;7073;42.672;23.256;2024-01-16T12:26:32;4.20;;;1.67;;
6127;SDS011;7073;42.672;23.256;2024-01-16T12:29:12;4.70;;;2.20;;
6127;SDS011;7073;42.672;23.256;2024-01-16T12:31:44;2.85;;;1.52;;
6127;SDS011;7073;42.672;23.256;2024-01-16T12:34:21;4.32;;;2.35;;
6127;SDS011;7073;42.672;23.256;2024-01-16T12:36:50;5.80;;;1.83;;
6127;SDS011;7073;42.672;23.256;2024-01-16T12:39:31;3.50;;;1.42;;
6127;SDS011;7073;42.672;23.256;2024-01-16T12:42:00;2.17;;;1.55;;
6127;SDS011;7073;42.672;23.256;2024-01-16T12:44:27;3.88;;;1.77;;
6127;SDS011;7073;42.672;23.256;2024-01-16T12:46:54;4.78;;;1.95;;
6127;SDS011;7073;42.672;23.256;2024-01-16T12:49:22;4.70;;;2.65;;
6127;SDS011;7073;42.672;23.256;2024-01-16T12:51:51;5.07;;;1.65;;
6127;SDS011;7073;42.672;23.256;2024-01-16T12:54:39;3.95;;;1.63;;
6127;SDS011;7073;42.672;23.256;2024-01-16T12:57:08;4.30;;;1.63;;
6127;SDS011;7073;42.672;23.256;2024-01-16T12:59:48;4.10;;;2.20;;
6127;SDS011;7073;42.672;23.256;2024-01-16T13:02:51;2.92;;;1.50;;
6127;SDS011;7073;42.672;23.256;2024-01-16T13:05:22;4.20;;;1.77;;
6127;SDS011;7073;42.672;23.256;2024-01-16T13:08:01;3.85;;;1.75;;
6127;SDS011;7073;42.672;23.256;2024-01-16T13:10:30;4.03;;;1.73;;
6127;SDS011;7073;42.672;23.256;2024-01-16T13:13:15;2.33;;;1.13;;
6127;SDS011;7073;42.672;23.256;2024-01-16T13:15:43;3.05;;;1.30;;
6127;SDS011;7073;42.672;23.256;2024-01-16T13:18:18;5.53;;;2.67;;
6127;SDS011;7073;42.672;23.256;2024-01-16T13:20:47;2.50;;;1.63;;
6127;SDS011;7073;42.672;23.256;2024-01-16T13:23:16;3.40;;;1.60;;
6127;SDS011;7073;42.672;23.256;2024-01-16T13:25:45;5.22;;;2.00;;
6127;SDS011;7073;42.672;23.256;2024-01-16T13:28:17;3.63;;;2.13;;
6127;SDS011;7073;42.672;23.256;2024-01-16T13:30:46;4.68;;;2.25;;
6127;SDS011;7073;42.672;23.256;2024-01-16T13:33:16;3.58;;;1.92;;
6127;SDS011;7073;42.672;23.256;2024-01-16T13:35:47;6.88;;;3.33;;
6127;SDS011;7073;42.672;23.256;2024-01-16T13:38:14;7.35;;;3.53;;
6127;SDS011;7073;42.672;23.256;2024-01-16T13:40:42;6.65;;;2.90;;
6127;SDS011;7073;42.672;23.256;2024-01-16T13:43:09;6.22;;;2.70;;
6127;SDS011;7073;42.672;23.256;2024-01-16T13:45:38;4.90;;;2.72;;
6127;SDS011;7073;42.672;23.256;2024-01-16T13:48:06;5.50;;;2.42;;
6127;SDS011;7073;42.672;23.256;2024-01-16T13:50:34;5.50;;;2.70;;
6127;SDS011;7073;42.672;23.256;2024-01-16T13:53:02;4.35;;;2.45;;
6127;SDS011;7073;42.672;23.256;2024-01-16T13:55:32;2.72;;;1.73;;
6127;SDS011;7073;42.672;23.256;2024-01-16T13:58:00;3.70;;;1.35;;
6127;SDS011;7073;42.672;23.256;2024-01-16T14:00:30;1.77;;;1.10;;
6127;SDS011;7073;42.672;23.256;2024-01-16T14:03:21;6.30;;;2.85;;
6127;SDS011;7073;42.672;23.256;2024-01-16T14:06:09;5.53;;;3.25;;
6127;SDS011;7073;42.672;23.256;2024-01-16T14:08:41;10.13;;;4.05;;
6127;SDS011;7073;42.672;23.256;2024-01-16T14:11:26;8.65;;;3.13;;
6127;SDS011;7073;42.672;23.256;2024-01-16T14:14:03;14.43;;;5.97;;
6127;SDS011;7073;42.672;23.256;2024-01-16T14:16:41;6.57;;;3.42;;
6127;SDS011;7073;42.672;23.256;2024-01-16T14:19:36;10.23;;;4.15;;
6127;SDS011;7073;42.672;23.256;2024-01-16T14:22:21;8.40;;;3.25;;
6127;SDS011;7073;42.672;23.256;2024-01-16T14:25:30;5.55;;;2.78;;
6127;SDS011;7073;42.672;23.256;2024-01-16T14:27:58;7.00;;;1.90;;
6127;SDS011;7073;42.672;23.256;2024-01-16T14:30:37;4.30;;;2.55;;
6127;SDS011;7073;42.672;23.256;2024-01-16T14:33:39;9.02;;;4.85;;
6127;SDS011;7073;42.672;23.256;2024-01-16T14:42:52;8.52;;;3.75;;
6127;SDS011;7073;42.672;23.256;2024-01-16T14:45:46;10.23;;;4.68;;
6127;SDS011;7073;42.672;23.256;2024-01-16T14:48:39;10.65;;;4.80;;
6127;SDS011;7073;42.672;23.256;2024-01-16T14:51:46;11.10;;;4.18;;
6127;SDS011;7073;42.672;23.256;2024-01-16T14:54:16;5.45;;;2.67;;
6127;SDS011;7073;42.672;23.256;2024-01-16T14:57:02;7.43;;;3.45;;
6127;SDS011;7073;42.672;23.256;2024-01-16T15:03:41;7.25;;;3.63;;
6127;SDS011;7073;42.672;23.256;2024-01-16T15:07:00;15.60;;;5.90;;
6127;SDS011;7073;42.672;23.256;2024-01-16T15:10:01;11.68;;;4.68;;
6127;SDS011;7073;42.672;23.256;2024-01-16T15:12:43;9.25;;;4.32;;
6127;SDS011;7073;42.672;23.256;2024-01-16T15:15:59;13.85;;;5.43;;
6127;SDS011;7073;42.672;23.256;2024-01-16T15:22:07;10.77;;;4.10;;
6127;SDS011;7073;42.672;23.256;2024-01-16T15:28:51;8.95;;;4.72;;
6127;SDS011;7073;42.672;23.256;2024-01-16T16:53:21;16.00;;;8.45;;
6127;SDS011;7073;42.672;23.256;2024-01-16T16:56:18;19.38;;;8.65;;
6127;SDS011;7073;42.672;23.256;2024-01-16T16:59:10;12.02;;;5.22;;
6127;SDS011;7073;42.672;23.256;2024-01-16T17:01:40;16.77;;;9.32;;
6127;SDS011;7073;42.672;23.256;2024-01-16T17:04:41;16.17;;;7.70;;
6127;SDS011;7073;42.672;23.256;2024-01-16T17:07:27;19.77;;;9.90;;
6127;SDS011;7073;42.672;23.256;2024-01-16T17:10:31;21.73;;;10.25;;
6127;SDS011;7073;42.672;23.256;2024-01-16T17:16:38;30.58;;;14.68;;
6127;SDS011;7073;42.672;23.256;2024-01-16T17:19:34;28.98;;;14.93;;
6127;SDS011;7073;42.672;23.256;2024-01-16T17:22:11;32.10;;;14.35;;
6127;SDS011;7073;42.672;23.256;2024-01-16T17:24:44;23.80;;;12.65;;
6127;SDS011;7073;42.672;23.256;2024-01-16T17:27:16;14.00;;;6.70;;
6127;SDS011;7073;42.672;23.256;2024-01-16T17:29:48;21.05;;;10.07;;
6127;SDS011;7073;42.672;23.256;2024-01-16T17:32:17;22.20;;;12.32;;
6127;SDS011;7073;42.672;23.256;2024-01-16T17:34:48;22.55;;;12.65;;
6127;SDS011;7073;42.672;23.256;2024-01-16T17:37:18;23.27;;;11.20;;
6127;SDS011;7073;42.672;23.256;2024-01-16T17:39:51;15.48;;;7.13;;
6127;SDS011;7073;42.672;23.256;2024-01-16T17:42:23;14.90;;;7.28;;
6127;SDS011;7073;42.672;23.256;2024-01-16T17:44:58;12.27;;;6.95;;
6127;SDS011;7073;42.672;23.256;2024-01-16T17:47:33;19.77;;;9.93;;
6127;SDS011;7073;42.672;23.256;2024-01-16T17:50:04;21.73;;;11.50;;
6127;SDS011;7073;42.672;23.256;2024-01-16T17:52:45;21.73;;;11.45;;
6127;SDS011;7073;42.672;23.256;2024-01-16T17:55:18;20.98;;;6.30;;
6127;SDS011;7073;42.672;23.256;2024-01-16T17:58:11;13.35;;;6.93;;
6127;SDS011;7073;42.672;23.256;2024-01-16T18:01:23;11.48;;;5.72;;
6127;SDS011;7073;42.672;23.256;2024-01-16T18:04:18;18.75;;;9.77;;
6127;SDS011;7073;42.672;23.256;2024-01-16T18:07:09;27.88;;;12.55;;
6127;SDS011;7073;42.672;23.256;2024-01-16T18:10:50;26.77;;;12.73;;
6127;SDS011;7073;42.672;23.256;2024-01-16T18:13:27;16.15;;;8.27;;
6127;SDS011;7073;42.672;23.256;2024-01-16T18:19:26;19.25;;;6.72;;
6127;SDS011;7073;42.672;23.256;2024-01-16T18:28:06;26.00;;;13.30;;
6127;SDS011;7073;42.672;23.256;2024-01-16T18:42:08;45.38;;;20.17;;
6127;SDS011;7073;42.672;23.256;2024-01-16T18:44:53;31.55;;;16.10;;
6127;SDS011;7073;42.672;23.256;2024-01-16T18:47:52;23.63;;;11.93;;
6127;SDS011;7073;42.672;23.256;2024-01-16T18:50:57;20.77;;;10.60;;
6127;SDS011;7073;42.672;23.256;2024-01-16T18:53:24;25.35;;;14.75;;
6127;SDS011;7073;42.672;23.256;2024-01-16T18:56:05;24.58;;;12.73;;
6127;SDS011;7073;42.672;23.256;2024-01-16T18:58:36;25.35;;;13.73;;
6127;SDS011;7073;42.672;23.256;2024-01-16T19:01:17;25.30;;;12.77;;